Latest Weather Observations for Point Stuart

IDD60801

Issued at 2:01 pm CST Tuesday 25 April 2017 (issued every 30 minutes, with the page automatically refreshed every 10 minutes)

About weather observations | Map of weather stations | Latest weather observations for NT | Other Formats
Station Details ID: 014254 Name: POINT STUART Lat: -12.24 Lon: 131.88 Height: 1.0 m
Data from the previous 72 hours. | See also: Recent months at Point Stuart
Date/Time
CST
Temp
°C
App
Temp
°C
Dew
Point
°C
Rel
Hum
%
Delta-T
°C
Wind Press
QNH
hPa
Press
MSL
hPa
Rain since
9am
mm
Dir  Spd
km/h
Gust
km/h
Spd
kts
Gust
kts
25/02:00pm 31.2 34.9 25.8 73 3.8 E 17 22 9 12 1008.8 - 0.0
25/01:30pm 30.5 34.2 25.8 76 3.3 E 17 22 9 12 1009.2 - 0.0
25/01:00pm 30.6 34.9 26.7 80 2.8 E 17 24 9 13 1009.5 - 0.0
25/12:30pm 30.2 35.3 27.2 84 2.2 ESE 15 22 8 12 1010.0 - 0.0
25/12:00pm 29.2 33.3 26.4 85 2.0 E 17 22 9 12 1010.6 1010.6 0.0
25/11:30am 29.7 34.6 28.1 91 1.2 E 19 26 10 14 1011.1 - 0.0
25/11:00am 29.4 36.1 29.4 100 0.0 ESE 15 24 8 13 1011.4 - 0.0
25/10:30am 29.6 - 29.8 - - ESE 19 26 10 14 1011.6 - 0.0
25/10:00am 28.0 - 28.3 - - SE 11 15 6 8 1011.8 - 0.0
25/09:30am 27.2 - 27.5 - - SE 13 17 7 9 1011.8 - 0.0
25/09:00am 26.4 - 26.7 - - SE 11 17 6 9 1011.6 1011.6 0.0
25/08:30am 26.1 - 26.6 - - SSE 11 15 6 8 1011.6 - 0.0
25/08:00am 25.9 - 26.4 - - SSE 9 11 5 6 1011.1 - 0.0
25/07:30am 25.4 - 25.9 - - S 9 11 5 6 1010.8 - 0.0
25/07:00am 25.2 - 25.7 - - S 6 9 3 5 1010.4 - 0.0
25/06:30am 24.7 - 25.0 - - CALM 0 0 0 0 1010.1 - 0.0
25/06:00am 24.7 - 25.0 - - CALM 0 0 0 0 1009.9 1009.9 0.0
25/05:30am 24.8 - 25.1 - - CALM 0 0 0 0 1009.9 - 0.0
25/05:00am 25.0 - 25.3 - - S 6 7 3 4 1009.8 - 0.0
25/04:30am 25.6 - 25.9 - - S 2 7 1 4 1009.7 - 0.0
25/04:00am 25.4 - 25.7 - - SSW 7 11 4 6 1009.4 - 0.0
25/03:30am 25.6 - 25.9 - - SSW 6 7 3 4 1009.4 - 0.0
25/03:00am 25.8 - 26.1 - - S 7 9 4 5 1009.7 1009.7 0.0
25/02:30am 25.9 - 26.1 - - SSE 7 9 4 5 1009.8 - 0.0
25/02:00am 26.0 - 26.2 - - SSE 7 9 4 5 1009.9 - 0.0
25/01:30am 26.1 - 26.3 - - S 7 9 4 5 1010.3 - 0.0
25/01:00am 26.2 - 26.4 - - SSE 7 9 4 5 1010.7 - 0.0
25/12:30am 26.5 - 26.7 - - ESE 6 9 3 5 1010.9 - 0.0
25/12:00am 27.1 - 27.3 - - E 13 17 7 9 1011.3 1011.3 0.0
 
Date/Time
CST
Temp
°C
App
Temp
°C
Dew
Point
°C
Rel
Hum
%
Delta-T
°C
Wind Press
QNH
hPa
Press
MSL
hPa
Rain since
9am
mm
Dir  Spd
km/h
Gust
km/h
Spd
kts
Gust
kts
24/11:30pm 27.1 - 27.3 - - ESE 7 9 4 5 1011.6 - 0.0
24/11:00pm 27.2 - 27.4 - - ENE 13 17 7 9 1011.9 - 0.0
24/10:30pm 27.3 - 27.5 - - NE 17 22 9 12 1012.1 - 0.0
24/10:00pm 27.4 - 27.6 - - NE 19 24 10 13 1012.2 - 0.0
24/09:30pm 27.5 - 27.7 - - NE 15 24 8 13 1012.2 - 0.0
24/09:00pm 27.5 35.6 27.5 100 0.0 CALM 0 0 0 0 1011.8 1011.8 0.0
24/08:30pm 27.2 35.1 27.2 100 0.0 CALM 0 0 0 0 1011.3 - 0.0
24/08:00pm 27.1 34.6 26.6 97 0.4 CALM 0 0 0 0 1010.6 - 0.0
24/07:30pm 26.9 32.4 24.7 88 1.5 N 4 6 2 3 1010.1 - 0.0
24/07:00pm 27.1 31.9 24.2 84 2.0 N 6 9 3 5 1009.8 - 0.0
24/06:30pm 28.1 33.4 24.3 80 2.6 N 4 7 2 4 1009.6 - 0.0
24/06:00pm 29.5 35.1 24.8 76 3.3 NNE 4 7 2 4 1009.2 1009.2 0.0
24/05:30pm 30.4 35.8 24.5 70 4.1 NNE 4 7 2 4 1008.7 - 0.0
24/05:00pm 30.4 34.7 23.3 66 4.9 NNE 6 9 3 5 1008.4 - 0.0
24/04:30pm 31.9 36.9 24.5 65 5.2 NNE 6 9 3 5 1008.3 - 0.0
24/04:00pm 31.7 36.2 24.6 66 5.0 N 9 13 5 7 1008.6 - 0.0
24/03:30pm 31.7 36.2 24.6 66 5.0 N 9 17 5 9 1008.6 - 0.0
24/03:00pm 32.3 37.1 25.1 65 5.1 NNE 9 15 5 8 1008.8 1008.8 0.0
24/02:30pm 32.5 37.6 25.6 67 4.9 NE 9 15 5 8 1008.9 - 0.0
24/02:00pm 31.9 35.3 24.7 65 5.1 E 15 22 8 12 1009.1 - 0.0
24/01:30pm 31.9 35.5 25.0 67 4.9 E 15 20 8 11 1009.5 - 0.0
24/01:00pm 31.6 34.6 25.2 69 4.5 ENE 19 26 10 14 1009.9 - 0.0
24/12:30pm 31.4 35.1 25.7 71 4.0 SE 17 26 9 14 1010.4 - 0.0
24/12:00pm 31.6 38.2 27.7 80 2.8 ESE 9 17 5 9 1010.9 1010.9 0.0
24/11:30am 31.0 37.5 28.6 87 1.8 SE 13 22 7 12 1011.5 - 0.0
24/11:00am 30.7 38.1 29.8 95 0.7 SE 13 19 7 10 1012.0 - 0.0
24/10:30am 30.4 - 30.6 - - S 9 17 5 9 1012.2 - 0.0
24/10:00am 29.9 - 30.1 - - SSW 11 17 6 9 1012.2 - 0.0
24/09:30am 28.8 - 29.1 - - S 13 19 7 10 1012.3 - 0.0
24/09:00am 28.3 - 28.6 - - S 11 15 6 8 1012.0 1012.0 0.0
24/08:30am 27.4 - 27.9 - - SSE 9 13 5 7 1011.8 - 0.0
24/08:00am 26.6 - 27.1 - - S 11 15 6 8 1011.6 - 0.0
24/07:30am 25.8 - 26.3 - - S 9 13 5 7 1011.2 - 0.0
24/07:00am 25.4 - 25.9 - - S 9 11 5 6 1010.5 - 0.0
24/06:30am 25.2 - 25.7 - - S 7 9 4 5 1010.0 - 0.0
24/06:00am 25.1 - 25.6 - - SSE 6 7 3 4 1009.9 1009.9 0.0
24/05:30am 25.2 - 25.7 - - SE 9 11 5 6 1009.8 - 0.0
24/05:00am 25.3 - 25.8 - - SE 9 11 5 6 1009.9 - 0.0
24/04:30am 25.2 - 25.7 - - CALM 0 0 0 0 1009.9 - 0.0
24/04:00am 24.9 - 25.2 - - CALM 0 0 0 0 1009.9 - 0.0
24/03:30am 25.2 - 25.5 - - E 7 9 4 5 1010.1 - 0.0
24/03:00am 25.6 - 25.9 - - SE 9 11 5 6 1010.2 1010.2 0.0
24/02:30am 25.7 - 26.0 - - SE 4 6 2 3 1010.4 - 0.0
24/02:00am 25.9 - 26.2 - - CALM 0 6 0 3 1010.7 - 0.0
24/01:30am 26.1 - 26.4 - - SE 2 6 1 3 1010.7 - 0.0
24/01:00am 26.2 - 26.5 - - CALM 0 6 0 3 1011.0 - 0.0
24/12:30am 26.8 - 27.1 - - SE 6 7 3 4 1011.4 - 0.0
24/12:00am 27.1 - 27.3 - - ENE 11 19 6 10 1011.8 1011.8 0.0
 
Date/Time
CST
Temp
°C
App
Temp
°C
Dew
Point
°C
Rel
Hum
%
Delta-T
°C
Wind Press
QNH
hPa
Press
MSL
hPa
Rain since
9am
mm
Dir  Spd
km/h
Gust
km/h
Spd
kts
Gust
kts
23/11:30pm 26.2 - 26.4 - - CALM 0 0 0 0 1011.8 - 0.0
23/11:00pm 26.5 - 26.7 - - CALM 0 0 0 0 1011.6 - 0.0
23/10:30pm 26.5 33.9 26.5 100 0.0 CALM 0 0 0 0 1011.8 - 0.0
23/10:00pm 26.5 33.2 26.5 100 0.0 N 4 7 2 4 1011.9 - 0.0
23/09:30pm 26.6 33.0 26.6 100 0.0 N 6 9 3 5 1011.8 - 0.0
23/09:00pm 26.9 32.9 26.4 97 0.4 NNE 7 9 4 5 1011.5 1011.5 0.0
23/08:30pm 26.8 33.3 25.6 93 0.8 N 2 7 1 4 1011.3 - 0.0
23/08:00pm 27.1 32.7 25.7 92 1.0 N 7 11 4 6 1010.8 - 0.0
23/07:30pm 27.0 32.0 24.8 88 1.5 N 7 11 4 6 1010.4 - 0.0
23/07:00pm 27.3 31.8 24.0 82 2.3 N 7 11 4 6 1010.1 - 0.0
23/06:30pm 28.3 33.0 23.9 77 3.0 N 6 7 3 4 1009.9 - 0.0
23/06:00pm 29.4 33.8 23.8 72 3.9 N 7 9 4 5 1009.6 1009.6 0.0
23/05:30pm 30.6 35.6 24.5 70 4.3 N 6 9 3 5 1009.4 - 0.0
23/05:00pm 31.2 36.4 25.1 70 4.3 NNW 7 13 4 7 1009.2 - 0.0
23/04:30pm 31.7 36.5 25.1 68 4.7 N 9 15 5 8 1009.0 - 0.0
23/04:00pm 32.2 37.6 25.5 67 4.8 N 7 11 4 6 1009.0 - 0.0
23/03:30pm 32.0 37.1 25.6 69 4.5 N 9 13 5 7 1008.9 - 0.0
23/03:00pm 32.1 37.4 25.9 70 4.4 NNE 9 15 5 8 1009.0 1009.0 0.0
23/02:30pm 31.7 37.1 26.0 72 4.1 NNE 9 15 5 8 1009.3 - 0.0
23/02:00pm 31.7 37.0 26.5 74 3.7 NE 11 17 6 9 1009.7 - 0.0
23/01:30pm 31.8 37.9 27.0 76 3.5 NE 9 15 5 8 1010.0 - 0.0
23/01:00pm 31.5 37.2 27.0 77 3.2 ENE 11 17 6 9 1010.4 - 0.0
23/12:30pm 31.4 37.7 27.3 79 3.0 E 9 15 5 8 1010.9 - 0.0
23/12:00pm 31.3 37.2 27.9 82 2.5 ENE 13 20 7 11 1011.5 1011.5 0.0
23/11:30am 31.0 36.7 28.6 87 1.8 ENE 17 24 9 13 1011.9 - 0.0
23/11:00am 30.3 36.1 28.7 91 1.2 E 17 28 9 15 1012.1 - 0.0
23/10:30am 30.1 36.4 29.9 99 0.1 E 19 26 10 14 1012.2 - 0.0
23/10:00am 29.0 35.0 29.0 100 0.0 E 17 24 9 13 1012.0 - 0.0
23/09:30am 28.6 - 28.8 - - E 15 24 8 13 1011.8 - 0.0
23/09:00am 28.3 - 28.6 - - ESE 15 20 8 11 1011.9 1011.9 0.0
23/08:30am 27.2 - 27.7 - - ESE 11 15 6 8 1011.7 - 0.0
23/08:00am 26.4 - 26.9 - - ESE 7 11 4 6 1011.3 - 0.0
23/07:30am 25.5 - 26.0 - - SE 6 7 3 4 1011.1 - 0.0
23/07:00am 24.6 - 25.1 - - CALM 0 0 0 0 1010.7 - 0.0
23/06:30am 24.9 - 25.4 - - CALM 0 0 0 0 1010.4 - 0.0
23/06:00am 24.9 - 25.4 - - CALM 0 0 0 0 1010.0 1010.0 0.0
23/05:30am 24.8 - 25.3 - - S 2 6 1 3 1009.9 - 0.0
23/05:00am 25.5 - 26.0 - - SSE 6 7 3 4 1009.7 - 0.0
23/04:30am 25.4 - 25.7 - - SSE 7 9 4 5 1009.6 - 0.0
23/04:00am 25.5 - 25.8 - - SE 6 9 3 5 1009.7 - 0.0
23/03:30am 25.8 - 26.1 - - SE 6 7 3 4 1009.8 - 0.0
23/03:00am 26.0 - 26.3 - - SE 7 9 4 5 1009.9 1009.9 0.0
23/02:30am 26.2 - 26.5 - - SSE 7 9 4 5 1010.1 - 0.0
23/02:00am 26.5 - 26.8 - - SSE 6 7 3 4 1010.4 - 0.0
23/01:30am 26.5 - 26.8 - - E 9 17 5 9 1010.7 - 0.0
23/01:00am 26.5 - 26.8 - - ESE 4 11 2 6 1011.0 - 0.0
23/12:30am 26.2 - 26.5 - - CALM 0 0 0 0 1011.1 - 0.0
23/12:00am 26.2 - 26.4 - - CALM 0 0 0 0 1011.1 1011.1 0.0
 
Date/Time
CST
Temp
°C
App
Temp
°C
Dew
Point
°C
Rel
Hum
%
Delta-T
°C
Wind Press
QNH
hPa
Press
MSL
hPa
Rain since
9am
mm
Dir  Spd
km/h
Gust
km/h
Spd
kts
Gust
kts
22/11:30pm 26.4 - 26.6 - - CALM 0 0 0 0 1011.5 - 0.0
22/11:00pm 26.5 - 26.7 - - CALM 0 0 0 0 1011.5 - 0.0
22/10:30pm 26.5 33.5 26.5 100 0.0 NNE 2 6 1 3 1011.7 - 0.0
22/10:00pm 27.0 33.4 27.0 100 0.0 NNE 7 9 4 5 1011.8 - 0.0
22/09:30pm 27.4 33.7 27.4 100 0.0 N 9 15 5 8 1011.9 - 0.0
22/09:00pm 27.0 33.1 27.0 100 0.0 NNE 9 15 5 8 1011.5 1011.5 0.0
22/08:30pm 26.4 32.5 26.2 99 0.1 N 6 9 3 5 1010.9 - 0.0
22/08:00pm 26.8 33.8 25.8 94 0.7 CALM 0 0 0 0 1010.3 - 0.0
22/07:30pm 26.7 32.0 24.9 90 1.3 N 6 7 3 4 1010.0 - 0.0
22/07:00pm 27.4 32.6 24.8 86 1.8 NNW 6 7 3 4 1009.7 - 0.0
22/06:30pm 28.3 33.1 24.5 80 2.6 NNW 7 11 4 6 1009.2 - 0.0
22/06:00pm 29.6 34.8 25.1 77 3.2 N 7 13 4 7 1009.1 1009.1 0.0
22/05:30pm 30.5 35.6 25.6 75 3.5 NNW 9 15 5 8 1008.7 - 0.0
22/05:00pm 31.2 36.3 25.5 71 4.0 N 9 15 5 8 1008.2 - 0.0
22/04:30pm 31.9 37.3 26.0 71 4.2 N 9 15 5 8 1008.0 - 0.0
22/04:00pm 32.3 37.6 25.9 69 4.6 ENE 9 13 5 7 1008.0 - 0.0
22/03:30pm 32.1 36.5 25.7 69 4.6 NE 13 19 7 10 1008.1 - 0.0
22/03:00pm 32.2 36.5 25.5 67 4.8 E 13 19 7 10 1008.4 1008.4 0.0
22/02:30pm 32.2 35.4 25.0 65 5.1 SE 17 28 9 15 1008.7 - 0.0

Other Formats:

Comma delimited format used in spreadsheet applications
http://www.bom.gov.au/fwo/IDD60801/IDD60801.94127.axf

JavaScript Object Notation format (JSON) in row-major order
http://www.bom.gov.au/fwo/IDD60801/IDD60801.94127.json